Time;durP1;ratioP1;P1;durP2;ratioP2;P2;SDS_P1;SDS_P2;PMS_P1;PMS_P2;Temp;Humidity;BMP_temperature;BMP_pressure;BME280_temperature;BME280_humidity;BME280_pressure;Samples;Min_cycle;Max_cycle;Signal;HPM_P1;HPM_P2
2021/09/02 00:00:28;;;;;;;7.20;4.25;;;21.20;93.70;;;;;;6186386;23;20019;-82
2021/09/02 00:02:54;;;;;;;9.85;4.38;;;21.10;93.70;;;;;;6186503;23;20009;-83
2021/09/02 00:05:20;;;;;;;6.75;4.78;;;21.10;93.90;;;;;;6186222;23;20005;-82
2021/09/02 00:07:45;;;;;;;6.38;4.50;;;21.00;93.90;;;;;;6186365;23;20020;-85
2021/09/02 00:10:12;;;;;;;7.07;4.45;;;21.00;93.90;;;;;;6186359;23;20073;-80
2021/09/02 00:12:37;;;;;;;16.60;4.75;;;21.00;93.90;;;;;;6186248;23;20004;-82
2021/09/02 00:15:05;;;;;;;5.13;4.22;;;21.00;93.70;;;;;;6186375;23;20001;-80
2021/09/02 00:17:31;;;;;;;6.28;4.55;;;20.90;93.60;;;;;;6186715;23;19997;-86
2021/09/02 00:19:57;;;;;;;7.10;4.35;;;20.90;93.50;;;;;;6185772;23;20024;-79
2021/09/02 00:22:22;;;;;;;9.35;4.32;;;21.00;93.20;;;;;;6185863;23;20002;-84
2021/09/02 00:24:48;;;;;;;24.30;5.05;;;21.00;93.00;;;;;;6186291;23;20005;-84
2021/09/02 00:27:13;;;;;;;7.65;4.68;;;21.00;92.60;;;;;;6186381;23;20001;-84
2021/09/02 00:29:39;;;;;;;12.88;4.57;;;21.10;92.30;;;;;;6186293;23;20009;-83
2021/09/02 00:32:05;;;;;;;8.38;4.30;;;21.10;92.30;;;;;;6186214;23;20012;-85
2021/09/02 00:34:31;;;;;;;10.18;4.10;;;21.10;92.10;;;;;;6186851;23;20080;-88
2021/09/02 00:36:57;;;;;;;7.10;4.38;;;21.20;92.00;;;;;;6186509;23;20029;-83
2021/09/02 00:39:22;;;;;;;7.13;4.35;;;21.20;91.80;;;;;;6186568;23;20005;-84
2021/09/02 00:41:48;;;;;;;6.05;4.10;;;21.20;91.60;;;;;;6185742;23;20079;-84
2021/09/02 00:44:34;;;;;;;7.38;4.05;;;21.20;91.50;;;;;;6186827;23;20036;-88
2021/09/02 00:47:02;;;;;;;5.70;3.83;;;21.20;91.30;;;;;;6186411;23;19997;-88
2021/09/02 00:49:28;;;;;;;14.05;3.88;;;21.30;91.20;;;;;;6188157;23;20005;-88
2021/09/02 00:51:57;;;;;;;5.22;3.88;;;21.20;91.30;;;;;;6188314;23;20005;-85
2021/09/02 00:54:22;;;;;;;6.32;4.00;;;21.30;91.00;;;;;;6162494;23;20005;-90
2021/09/02 00:56:48;;;;;;;5.65;3.85;;;21.30;91.00;;;;;;6162553;23;20028;-87
2021/09/02 00:59:14;;;;;;;5.88;3.97;;;21.20;90.90;;;;;;6189953;23;20005;-89
2021/09/02 01:01:40;;;;;;;6.10;4.15;;;21.30;90.80;;;;;;6187402;23;20080;-85
2021/09/02 01:04:05;;;;;;;5.47;4.15;;;21.30;90.80;;;;;;6188120;23;19997;-87
2021/09/02 01:06:31;;;;;;;4.43;3.72;;;21.30;90.70;;;;;;6160394;23;20044;-78
2021/09/02 01:08:56;;;;;;;11.07;4.28;;;21.20;90.50;;;;;;6155891;23;20080;-81
2021/09/02 01:11:23;;;;;;;5.72;3.88;;;21.20;90.40;;;;;;6155980;23;20443;-79
2021/09/02 01:13:49;;;;;;;5.78;3.80;;;21.20;90.30;;;;;;6155981;23;20001;-79
2021/09/02 01:16:14;;;;;;;6.65;4.10;;;21.30;90.30;;;;;;6156548;23;20016;-75
2021/09/02 01:18:40;;;;;;;4.60;3.78;;;21.20;90.10;;;;;;6155678;23;20065;-75
2021/09/02 01:21:06;;;;;;;5.90;3.70;;;21.20;90.10;;;;;;6156120;23;20017;-79
2021/09/02 01:23:38;;;;;;;5.60;4.05;;;21.30;90.10;;;;;;6155939;23;20006;-81
2021/09/02 01:26:21;;;;;;;5.88;3.78;;;21.30;90.10;;;;;;6156120;23;20005;-73
2021/09/02 01:28:48;;;;;;;6.68;4.45;;;21.30;90.20;;;;;;6155581;23;20005;-77
2021/09/02 01:31:17;;;;;;;14.77;4.43;;;21.30;90.10;;;;;;6155998;23;20001;-78
2021/09/02 01:33:50;;;;;;;10.40;4.03;;;21.30;89.90;;;;;;6156382;23;20361;-78
2021/09/02 01:36:16;;;;;;;6.38;3.80;;;21.30;89.50;;;;;;6156367;23;20156;-73
2021/09/02 01:38:43;;;;;;;7.93;3.83;;;21.30;89.50;;;;;;6155859;23;20117;-75
2021/09/02 01:41:09;;;;;;;6.32;4.30;;;21.30;89.10;;;;;;6155076;23;20020;-77
2021/09/02 01:43:35;;;;;;;5.78;3.80;;;21.30;89.00;;;;;;6155098;23;20005;-77
2021/09/02 01:46:01;;;;;;;7.18;3.63;;;21.40;88.80;;;;;;6155149;23;20009;-79
2021/09/02 01:48:34;;;;;;;6.32;3.65;;;21.40;88.80;;;;;;6155823;23;20002;-77
2021/09/02 01:51:00;;;;;;;8.32;4.63;;;21.30;88.60;;;;;;6154257;23;20002;-76
2021/09/02 01:53:26;;;;;;;5.95;3.75;;;21.40;88.80;;;;;;6156088;23;20429;-78
2021/09/02 01:55:52;;;;;;;6.28;3.47;;;21.40;88.60;;;;;;6155498;23;20005;-82
2021/09/02 01:58:17;;;;;;;8.00;4.03;;;21.40;88.30;;;;;;6155676;23;20368;-74
2021/09/02 02:00:44;;;;;;;7.63;4.18;;;21.30;88.50;;;;;;6156073;23;20096;-78
2021/09/02 02:03:10;;;;;;;4.72;3.53;;;21.30;88.90;;;;;;6155823;23;20387;-86
2021/09/02 02:05:36;;;;;;;5.30;3.70;;;21.30;89.00;;;;;;6155662;23;20032;-79
2021/09/02 02:08:02;;;;;;;6.13;3.83;;;21.20;88.80;;;;;;6174173;23;20440;-75
2021/09/02 02:10:30;;;;;;;6.43;4.60;;;21.20;89.10;;;;;;6185563;23;20012;-78
2021/09/02 02:12:57;;;;;;;5.47;4.00;;;21.20;89.20;;;;;;6185279;23;19997;-75
2021/09/02 02:15:23;;;;;;;10.15;4.07;;;21.20;89.30;;;;;;6185703;23;20009;-77
2021/09/02 02:17:50;;;;;;;6.80;4.25;;;21.20;89.10;;;;;;6185582;23;20454;-73
2021/09/02 02:20:15;;;;;;;7.97;4.28;;;21.10;89.20;;;;;;6186334;23;20037;-77
2021/09/02 02:22:43;;;;;;;7.85;4.47;;;21.10;89.40;;;;;;6187328;23;19998;-78
2021/09/02 02:25:10;;;;;;;6.68;4.05;;;21.10;89.70;;;;;;6187354;23;20375;-75
2021/09/02 02:27:37;;;;;;;9.20;4.55;;;21.10;89.60;;;;;;6187293;23;19997;-75
2021/09/02 02:30:05;;;;;;;6.60;4.15;;;21.10;89.50;;;;;;6187299;23;20067;-76
2021/09/02 02:32:30;;;;;;;13.05;4.10;;;21.00;89.50;;;;;;6187209;23;20073;-81
2021/09/02 02:34:56;;;;;;;11.80;5.10;;;21.00;89.50;;;;;;6187307;23;20004;-78
2021/09/02 02:37:22;;;;;;;5.68;3.60;;;21.10;89.40;;;;;;6187012;23;19997;-82
2021/09/02 02:39:47;;;;;;;5.75;3.97;;;21.10;89.20;;;;;;6187136;23;20475;-83
2021/09/02 02:42:13;;;;;;;6.45;4.03;;;21.10;89.20;;;;;;6186934;23;20306;-74
2021/09/02 02:44:39;;;;;;;6.35;3.88;;;21.00;89.40;;;;;;6187301;23;20051;-80
2021/09/02 02:47:06;;;;;;;5.93;4.00;;;21.00;89.50;;;;;;6187016;23;20076;-77
2021/09/02 02:49:32;;;;;;;7.00;4.40;;;21.00;89.80;;;;;;6186676;23;20084;-80
2021/09/02 02:51:58;;;;;;;8.63;4.90;;;21.00;89.60;;;;;;6186907;23;20474;-82
2021/09/02 02:54:24;;;;;;;6.53;4.63;;;21.00;89.60;;;;;;6187172;23;20009;-80
2021/09/02 02:56:50;;;;;;;6.65;4.82;;;21.00;89.70;;;;;;6187061;23;20001;-80
2021/09/02 02:59:16;;;;;;;6.35;4.10;;;20.90;89.80;;;;;;6186954;23;20478;-78
2021/09/02 03:01:41;;;;;;;5.85;3.80;;;20.90;89.80;;;;;;6186906;23;20031;-80
2021/09/02 03:04:08;;;;;;;7.25;4.07;;;20.90;89.60;;;;;;6186663;23;20009;-85
2021/09/02 03:06:34;;;;;;;6.18;3.75;;;20.90;89.50;;;;;;6186535;23;20016;-79
2021/09/02 03:09:02;;;;;;;7.50;3.97;;;20.90;89.60;;;;;;6186993;23;20009;-79
2021/09/02 03:11:28;;;;;;;5.55;3.95;;;20.80;89.50;;;;;;6186978;23;20001;-78
2021/09/02 03:13:54;;;;;;;5.32;3.92;;;20.80;89.60;;;;;;6186698;23;20012;-84
2021/09/02 03:16:19;;;;;;;8.40;4.13;;;20.80;89.60;;;;;;6186831;23;20036;-78
2021/09/02 03:18:45;;;;;;;6.07;3.83;;;20.80;89.60;;;;;;6187109;23;20001;-79
2021/09/02 03:21:11;;;;;;;5.20;3.83;;;20.80;89.60;;;;;;6186472;23;20005;-82
2021/09/02 03:23:36;;;;;;;9.57;4.40;;;20.80;89.50;;;;;;6186806;23;20002;-80
2021/09/02 03:26:02;;;;;;;6.60;4.00;;;20.80;89.80;;;;;;6186547;23;20009;-81
2021/09/02 03:28:28;;;;;;;6.97;3.70;;;20.80;89.80;;;;;;6186569;23;20328;-87
2021/09/02 03:30:53;;;;;;;7.75;4.10;;;20.70;89.60;;;;;;6186154;23;20013;-81
2021/09/02 03:33:19;;;;;;;7.15;4.20;;;20.70;89.60;;;;;;6186856;23;20001;-79
2021/09/02 03:35:45;;;;;;;6.70;4.20;;;20.70;89.60;;;;;;6186558;23;20056;-83
2021/09/02 03:38:11;;;;;;;10.20;3.97;;;20.70;89.70;;;;;;6187017;23;20005;-82
2021/09/02 03:40:37;;;;;;;8.77;4.30;;;20.70;90.00;;;;;;6186470;23;20152;-73
2021/09/02 03:43:03;;;;;;;6.72;3.80;;;20.70;90.00;;;;;;6186396;23;20024;-79
2021/09/02 03:45:28;;;;;;;8.32;4.30;;;20.70;89.90;;;;;;6186351;23;20420;-76
2021/09/02 03:47:54;;;;;;;5.85;3.90;;;20.60;90.00;;;;;;6186363;23;20001;-75
2021/09/02 03:50:20;;;;;;;7.43;4.43;;;20.50;90.00;;;;;;6186655;23;20005;-77
2021/09/02 03:52:46;;;;;;;10.15;4.60;;;20.50;89.90;;;;;;6186167;23;20052;-79
2021/09/02 03:55:12;;;;;;;7.43;4.53;;;20.50;90.10;;;;;;6186574;23;20001;-77
2021/09/02 03:57:39;;;;;;;8.48;4.32;;;20.50;90.40;;;;;;6186486;23;20067;-80
2021/09/02 04:00:08;;;;;;;6.68;4.05;;;20.40;90.50;;;;;;6186327;23;20343;-79
2021/09/02 04:02:35;;;;;;;5.75;4.05;;;20.30;90.70;;;;;;6160247;23;20426;-74
2021/09/02 04:05:02;;;;;;;4.65;3.55;;;20.20;90.90;;;;;;6159686;23;20428;-80
2021/09/02 04:07:27;;;;;;;5.50;3.92;;;20.20;91.00;;;;;;6186046;23;20012;-81
2021/09/02 04:09:53;;;;;;;14.52;3.85;;;20.10;91.10;;;;;;6186456;23;20384;-74
2021/09/02 04:12:19;;;;;;;6.30;3.67;;;20.10;91.20;;;;;;6186575;23;20301;-81
2021/09/02 04:14:44;;;;;;;5.80;3.90;;;20.00;91.10;;;;;;6186493;23;20475;-79
2021/09/02 04:17:10;;;;;;;7.60;4.30;;;20.00;91.10;;;;;;6186156;23;20009;-80
2021/09/02 04:19:35;;;;;;;7.88;4.78;;;20.00;91.10;;;;;;6185979;23;20416;-78
2021/09/02 04:22:02;;;;;;;13.07;4.38;;;20.00;91.20;;;;;;6186016;23;20000;-78
2021/09/02 04:24:27;;;;;;;6.75;3.88;;;19.90;91.10;;;;;;6186085;23;20079;-77
2021/09/02 04:26:54;;;;;;;5.88;4.15;;;20.00;91.10;;;;;;6186161;23;20036;-77
2021/09/02 04:29:21;;;;;;;5.90;3.53;;;20.00;91.20;;;;;;6186332;23;20024;-82
2021/09/02 04:31:47;;;;;;;7.00;3.92;;;19.90;91.30;;;;;;6186065;23;20059;-79
2021/09/02 04:34:13;;;;;;;5.03;3.85;;;19.90;91.20;;;;;;6185914;23;20001;-80
2021/09/02 04:36:39;;;;;;;6.22;4.20;;;19.90;91.20;;;;;;6185987;23;20008;-81
2021/09/02 04:39:05;;;;;;;6.55;4.10;;;20.00;91.20;;;;;;6185913;23;20443;-80
2021/09/02 04:41:31;;;;;;;11.88;4.93;;;19.90;91.10;;;;;;6185878;23;20080;-80
2021/09/02 04:43:57;;;;;;;15.38;5.15;;;19.90;91.10;;;;;;6185756;23;20016;-80
2021/09/02 04:46:23;;;;;;;7.30;4.85;;;20.00;91.10;;;;;;6185838;23;20005;-81
2021/09/02 04:48:48;;;;;;;11.23;4.03;;;20.00;91.10;;;;;;6186005;23;19997;-80
2021/09/02 04:51:15;;;;;;;7.00;4.38;;;20.00;91.00;;;;;;6185808;23;20076;-80
2021/09/02 04:53:42;;;;;;;9.48;4.60;;;20.10;91.10;;;;;;6185660;23;20004;-80
2021/09/02 04:56:07;;;;;;;6.72;3.88;;;20.10;91.30;;;;;;6185774;23;20005;-81
2021/09/02 04:58:33;;;;;;;5.65;3.90;;;20.30;91.50;;;;;;6186098;23;20092;-80
2021/09/02 05:00:59;;;;;;;5.70;3.88;;;21.10;90.90;;;;;;6185806;23;20079;-74
2021/09/02 05:03:24;;;;;;;6.38;4.25;;;22.10;89.20;;;;;;6185780;23;20359;-76
2021/09/02 05:05:50;;;;;;;7.75;3.70;;;22.70;87.80;;;;;;6185909;23;20008;-81
2021/09/02 05:08:16;;;;;;;9.75;3.90;;;23.10;86.30;;;;;;6185555;23;20067;-79
2021/09/02 05:10:41;;;;;;;7.75;4.25;;;22.90;85.80;;;;;;6185654;23;20451;-80
2021/09/02 05:13:07;;;;;;;8.48;3.92;;;22.50;86.60;;;;;;6186053;23;20320;-80
2021/09/02 05:15:32;;;;;;;6.53;4.20;;;22.20;87.70;;;;;;6185629;23;20103;-80
2021/09/02 05:17:58;;;;;;;5.28;4.18;;;22.00;88.00;;;;;;6186138;23;20083;-79
2021/09/02 05:20:24;;;;;;;6.05;3.92;;;21.90;88.40;;;;;;6185744;23;20486;-78
2021/09/02 05:22:49;;;;;;;6.35;4.53;;;21.70;88.30;;;;;;6185613;23;20025;-80
2021/09/02 05:25:15;;;;;;;8.43;3.88;;;21.60;88.80;;;;;;6186015;23;20005;-76
2021/09/02 05:27:41;;;;;;;11.35;4.40;;;21.50;88.80;;;;;;6186355;23;20001;-84
2021/09/02 05:30:11;;;;;;;12.13;5.15;;;22.30;88.30;;;;;;6186656;23;20436;-79
2021/09/02 05:32:37;;;;;;;5.20;3.75;;;24.20;84.40;;;;;;6186888;23;20008;-87
2021/09/02 05:35:04;;;;;;;8.73;4.15;;;26.30;80.00;;;;;;6186498;23;20076;-78
2021/09/02 05:37:30;;;;;;;9.98;3.67;;;28.30;77.00;;;;;;6186263;23;20008;-79
2021/09/02 05:39:55;;;;;;;8.25;3.65;;;29.90;72.70;;;;;;6185981;23;20320;-80
2021/09/02 05:42:21;;;;;;;4.90;3.33;;;31.30;69.60;;;;;;6186072;23;20008;-80
2021/09/02 05:44:46;;;;;;;6.47;3.90;;;32.30;67.70;;;;;;6186835;23;20023;-80
2021/09/02 05:47:12;;;;;;;5.30;3.33;;;33.40;66.10;;;;;;6186449;23;20005;-80
2021/09/02 05:49:38;;;;;;;7.32;3.75;;;34.40;64.10;;;;;;6186186;23;20027;-79
2021/09/02 05:52:04;;;;;;;9.20;3.38;;;35.40;61.90;;;;;;6186485;23;20040;-77
2021/09/02 05:54:30;;;;;;;11.52;3.33;;;35.80;60.70;;;;;;6187553;23;20068;-81
2021/09/02 05:56:55;;;;;;;14.05;3.17;;;36.50;59.20;;;;;;6189065;23;20004;-80
2021/09/02 05:59:21;;;;;;;5.90;2.97;;;37.40;58.20;;;;;;6188711;23;20005;-80
2021/09/02 06:01:47;;;;;;;5.18;2.80;;;37.50;56.50;;;;;;6187158;23;20008;-78
2021/09/02 06:04:14;;;;;;;9.68;3.40;;;37.40;56.10;;;;;;6187178;23;20072;-78
2021/09/02 06:06:40;;;;;;;4.38;3.22;;;37.90;55.20;;;;;;6187182;23;20001;-79
2021/09/02 06:09:07;;;;;;;9.80;2.88;;;38.50;54.60;;;;;;6187071;23;20002;-76
2021/09/02 06:11:33;;;;;;;4.38;2.65;;;38.90;54.20;;;;;;6187597;23;20008;-79
2021/09/02 06:13:59;;;;;;;4.88;2.67;;;39.60;52.90;;;;;;6186642;23;20040;-80
2021/09/02 06:16:25;;;;;;;3.67;2.63;;;40.60;52.10;;;;;;6187002;23;20363;-80
2021/09/02 06:18:51;;;;;;;8.48;2.67;;;40.50;51.60;;;;;;6188720;23;20425;-81
2021/09/02 06:21:17;;;;;;;6.38;2.83;;;41.20;51.40;;;;;;6187020;23;20032;-81
2021/09/02 06:23:42;;;;;;;6.88;3.13;;;40.10;51.60;;;;;;6187607;23;20005;-80
2021/09/02 06:26:08;;;;;;;5.55;2.80;;;39.50;52.00;;;;;;6186699;23;20016;-80
2021/09/02 06:28:34;;;;;;;5.40;2.90;;;39.90;52.00;;;;;;6186427;23;20001;-79
2021/09/02 06:31:00;;;;;;;10.80;3.15;;;41.00;50.70;;;;;;6186294;23;20309;-77
2021/09/02 06:33:25;;;;;;;7.35;2.80;;;41.70;50.30;;;;;;6186498;23;20001;-80
2021/09/02 06:35:51;;;;;;;4.00;2.88;;;41.90;49.60;;;;;;6186785;23;20013;-79
2021/09/02 06:38:17;;;;;;;5.72;2.55;;;42.50;49.00;;;;;;6187391;23;20001;-79
2021/09/02 06:40:43;;;;;;;10.40;3.13;;;42.80;49.30;;;;;;6186957;23;20368;-78
2021/09/02 06:43:08;;;;;;;3.30;2.60;;;43.20;48.30;;;;;;6187103;23;20424;-82
2021/09/02 06:45:34;;;;;;;8.45;2.90;;;44.30;47.70;;;;;;6186379;23;20016;-80
2021/09/02 06:48:00;;;;;;;3.30;2.75;;;45.00;47.00;;;;;;6186275;23;20063;-81
2021/09/02 06:50:26;;;;;;;7.32;2.63;;;45.40;46.40;;;;;;6186499;23;20028;-77
2021/09/02 06:52:51;;;;;;;9.23;3.20;;;45.20;45.80;;;;;;6186782;23;20001;-78
2021/09/02 06:55:17;;;;;;;4.28;3.05;;;44.80;46.20;;;;;;6188026;23;20479;-81
2021/09/02 06:57:43;;;;;;;7.60;2.53;;;45.30;45.90;;;;;;6186872;23;20408;-80
2021/09/02 07:00:10;;;;;;;2.72;2.50;;;46.10;45.40;;;;;;6186528;23;20024;-76
2021/09/02 07:02:35;;;;;;;3.58;2.40;;;47.00;44.60;;;;;;6185687;23;20032;-81
2021/09/02 07:05:05;;;;;;;4.53;2.50;;;47.60;44.50;;;;;;6186701;23;20001;-80
2021/09/02 07:07:31;;;;;;;5.10;2.55;;;48.30;43.80;;;;;;6186253;23;20340;-83
2021/09/02 07:09:56;;;;;;;5.78;2.53;;;47.70;43.80;;;;;;6186717;23;20001;-80
2021/09/02 07:12:22;;;;;;;5.80;2.45;;;46.50;44.90;;;;;;6186566;23;19997;-79
2021/09/02 07:14:48;;;;;;;6.75;2.42;;;45.70;45.10;;;;;;6187129;23;20446;-82
2021/09/02 07:17:14;;;;;;;5.07;2.80;;;44.30;45.40;;;;;;6160493;23;20467;-82
2021/09/02 07:19:39;;;;;;;4.85;2.55;;;42.90;46.70;;;;;;6186522;23;20005;-81
2021/09/02 07:22:05;;;;;;;8.15;2.70;;;42.00;47.50;;;;;;6186587;23;20080;-81
2021/09/02 07:24:31;;;;;;;3.85;2.70;;;41.50;48.00;;;;;;6186294;23;20021;-83
2021/09/02 07:26:57;;;;;;;9.45;3.00;;;41.40;48.20;;;;;;6186860;23;20040;-83
2021/09/02 07:29:22;;;;;;;3.75;2.70;;;40.80;48.30;;;;;;6186630;23;20432;-83
2021/09/02 07:31:48;;;;;;;4.40;2.67;;;39.80;48.70;;;;;;6186755;23;20005;-81
2021/09/02 07:34:14;;;;;;;5.40;2.88;;;39.90;49.40;;;;;;6160598;23;20382;-81
2021/09/02 07:36:40;;;;;;;4.55;2.47;;;38.80;49.90;;;;;;6159992;23;20467;-80
2021/09/02 07:39:06;;;;;;;7.55;2.88;;;38.20;50.60;;;;;;6186580;23;20028;-82
2021/09/02 07:41:32;;;;;;;6.45;2.72;;;37.60;50.60;;;;;;6186280;23;20013;-81
2021/09/02 07:43:58;;;;;;;4.22;2.83;;;37.20;51.50;;;;;;6186653;23;20415;-84
2021/09/02 07:46:23;;;;;;;5.63;3.00;;;36.70;52.00;;;;;;6186650;23;20067;-78
2021/09/02 07:48:51;;;;;;;7.43;2.50;;;37.10;52.00;;;;;;6186461;23;19998;-80
2021/09/02 07:51:18;;;;;;;3.20;2.70;;;37.30;52.10;;;;;;6186359;23;20008;-80
2021/09/02 07:53:44;;;;;;;5.97;3.35;;;37.50;51.50;;;;;;6186664;23;20581;-80
2021/09/02 07:56:10;;;;;;;7.97;3.20;;;38.30;51.50;;;;;;6186320;23;20008;-81
2021/09/02 07:58:35;;;;;;;7.10;3.20;;;37.60;51.20;;;;;;6186222;23;19997;-83
2021/09/02 08:01:02;;;;;;;5.43;3.28;;;37.70;51.50;;;;;;6186230;23;20012;-84
2021/09/02 08:03:27;;;;;;;18.33;3.22;;;37.60;51.40;;;;;;6186332;23;20172;-81
2021/09/02 08:05:53;;;;;;;4.50;2.80;;;37.80;51.70;;;;;;6159828;23;20030;-83
2021/09/02 08:08:19;;;;;;;7.35;2.80;;;38.20;51.70;;;;;;6185887;23;20022;-81
2021/09/02 08:10:47;;;;;;;10.55;3.13;;;38.90;50.90;;;;;;6186241;23;20008;-82
2021/09/02 08:13:13;;;;;;;4.47;3.13;;;40.10;50.80;;;;;;6186259;23;20001;-81
2021/09/02 08:15:39;;;;;;;4.35;2.72;;;39.80;50.30;;;;;;6159780;23;20340;-83
2021/09/02 08:18:06;;;;;;;3.88;2.63;;;39.60;49.90;;;;;;6185903;23;20063;-81
2021/09/02 08:20:32;;;;;;;4.13;3.00;;;39.30;49.90;;;;;;6185988;23;20013;-81
2021/09/02 08:22:59;;;;;;;3.03;2.35;;;39.50;50.00;;;;;;6185657;23;20001;-85
2021/09/02 08:25:25;;;;;;;6.68;2.63;;;39.50;50.00;;;;;;6185877;23;20013;-80
2021/09/02 08:27:51;;;;;;;4.55;2.40;;;40.00;49.80;;;;;;6185742;23;20020;-86
2021/09/02 08:30:24;;;;;;;6.00;3.08;;;40.40;49.30;;;;;;6185932;23;20008;-82
2021/09/02 08:32:50;;;;;;;7.80;2.83;;;40.80;48.60;;;;;;6186019;23;19997;-82
2021/09/02 08:35:31;;;;;;;5.10;2.65;;;40.60;49.10;;;;;;6186166;23;20001;-85
2021/09/02 08:38:03;;;;;;;2.97;2.63;;;40.90;48.70;;;;;;6185952;23;20008;-84
2021/09/02 08:40:33;;;;;;;2.97;2.67;;;41.90;48.20;;;;;;6186305;23;20495;-83
2021/09/02 08:42:59;;;;;;;3.70;2.60;;;43.30;47.30;;;;;;6186070;23;20043;-84
2021/09/02 08:45:27;;;;;;;6.10;2.08;;;44.00;46.70;;;;;;6185795;23;20478;-86
2021/09/02 08:47:53;;;;;;;5.53;2.60;;;44.70;46.00;;;;;;6185801;23;20036;-82
2021/09/02 08:50:23;;;;;;;5.70;2.63;;;45.30;45.80;;;;;;6185748;23;20332;-81
2021/09/02 08:52:50;;;;;;;2.47;2.15;;;45.20;45.50;;;;;;6185721;23;20059;-81
2021/09/02 08:55:16;;;;;;;3.35;2.50;;;44.80;45.10;;;;;;6185766;23;20374;-81
2021/09/02 08:57:45;;;;;;;5.60;2.60;;;44.10;45.70;;;;;;6174990;23;20012;-81
2021/09/02 09:00:12;;;;;;;2.50;2.30;;;43.70;46.10;;;;;;6198220;23;20004;-82
2021/09/02 09:02:42;;;;;;;2.58;2.10;;;43.90;46.00;;;;;;6196710;23;20054;-82
2021/09/02 09:05:20;;;;;;;6.63;2.33;;;44.30;45.70;;;;;;6196907;23;20001;-81
2021/09/02 09:07:49;;;;;;;3.03;2.45;;;44.60;45.80;;;;;;6166072;23;20104;-81
2021/09/02 09:10:22;;;;;;;2.95;2.50;;;44.00;45.60;;;;;;6166851;23;20009;-82
2021/09/02 09:12:53;;;;;;;3.50;2.60;;;43.70;45.40;;;;;;6166528;23;20001;-81
2021/09/02 09:15:44;;;;;;;3.20;2.90;;;43.10;45.50;;;;;;6167083;23;19998;-82
2021/09/02 09:18:25;;;;;;;6.40;2.40;;;42.40;45.90;;;;;;6141366;23;20089;-82
2021/09/02 09:21:18;;;;;;;4.25;3.13;;;41.30;46.90;;;;;;6165223;23;20440;-77
2021/09/02 09:24:05;;;;;;;4.82;3.08;;;39.30;48.50;;;;;;6163478;23;20008;-82
2021/09/02 09:26:38;;;;;;;12.40;3.08;;;37.60;49.60;;;;;;6164827;23;20073;-80
2021/09/02 09:29:16;;;;;;;8.00;3.03;;;36.40;50.70;;;;;;6163002;23;20002;-81
2021/09/02 09:31:42;;;;;;;11.20;2.90;;;35.30;52.00;;;;;;6161375;23;20028;-80
2021/09/02 09:34:14;;;;;;;4.72;3.10;;;34.20;53.40;;;;;;6163154;23;19997;-82
2021/09/02 09:36:39;;;;;;;;;;;33.60;54.90;;;;;;6164492;23;20060;-80
2021/09/02 09:39:21;;;;;;;4.05;2.95;;;33.30;54.80;;;;;;6164591;23;20268;-82
2021/09/02 09:42:07;;;;;;;4.07;3.25;;;33.20;55.20;;;;;;6084867;23;20018;-80
2021/09/02 09:44:33;;;;;;;6.32;3.67;;;33.10;55.20;;;;;;6157662;23;20057;-81
2021/09/02 09:47:05;;;;;;;3.95;3.35;;;32.70;57.60;;;;;;6164443;23;20001;-80
2021/09/02 09:50:02;;;;;;;9.35;3.70;;;32.50;58.60;;;;;;6163538;23;20017;-80
2021/09/02 09:52:51;;;;;;;10.15;3.72;;;32.20;60.70;;;;;;6145824;23;20025;-81
2021/09/02 09:55:18;;;;;;;6.03;3.22;;;32.10;60.30;;;;;;6136147;23;20022;-81
2021/09/02 09:57:48;;;;;;;6.22;3.65;;;32.10;59.10;;;;;;6163848;23;20017;-84
2021/09/02 10:00:16;;;;;;;10.48;3.85;;;32.00;59.00;;;;;;6164217;23;20013;-80
2021/09/02 10:02:47;;;;;;;11.02;3.80;;;31.80;61.30;;;;;;6163856;23;20012;-80
2021/09/02 10:05:18;;;;;;;13.52;4.25;;;31.70;61.50;;;;;;6163344;23;20013;-83
2021/09/02 10:07:47;;;;;;;10.13;4.07;;;31.60;61.40;;;;;;6178317;23;20341;-81
2021/09/02 10:10:16;;;;;;;5.03;3.50;;;31.50;62.10;;;;;;6194061;23;20079;-80
2021/09/02 10:12:43;;;;;;;7.72;4.00;;;31.30;62.20;;;;;;6165213;23;20031;-81
2021/09/02 10:15:30;;;;;;;6.50;4.00;;;31.20;62.80;;;;;;6198643;23;20001;-82
2021/09/02 10:17:57;;;;;;;7.38;3.85;;;30.90;64.00;;;;;;6166617;23;20012;-80
2021/09/02 10:20:28;;;;;;;5.63;3.45;;;30.80;64.30;;;;;;6193857;23;20009;-81
2021/09/02 10:23:01;;;;;;;5.53;4.00;;;30.60;63.70;;;;;;6186910;23;20144;-81
2021/09/02 10:25:30;;;;;;;6.32;3.70;;;30.50;64.70;;;;;;6168700;23;20243;-82
2021/09/02 10:28:21;;;;;;;6.60;3.85;;;30.40;64.80;;;;;;6191572;23;20009;-82
2021/09/02 10:30:53;;;;;;;9.98;4.30;;;30.20;65.40;;;;;;6191755;23;20114;-81
2021/09/02 10:33:33;;;;;;;;;;;29.90;65.90;;;;;;6193997;23;20077;-80
2021/09/02 10:36:02;;;;;;;4.73;4.00;;;29.70;66.60;;;;;;6193184;23;19900;-82
2021/09/02 10:38:48;;;;;;;7.18;3.90;;;29.50;66.90;;;;;;6193437;23;20228;-83
2021/09/02 10:41:34;;;;;;;6.45;3.75;;;29.40;66.80;;;;;;6195183;23;20017;-81
2021/09/02 10:44:04;;;;;;;13.73;4.85;;;29.40;66.70;;;;;;6195401;23;20005;-81
2021/09/02 10:46:59;;;;;;;7.32;4.13;;;29.60;66.60;;;;;;6193595;23;20032;-81
2021/09/02 10:49:26;;;;;;;9.98;4.15;;;29.60;64.80;;;;;;6161866;23;20005;-81
2021/09/02 10:52:21;;;;;;;4.97;3.80;;;29.70;66.40;;;;;;6193826;23;20001;-81
2021/09/02 10:54:51;;;;;;;8.38;4.28;;;29.50;67.50;;;;;;6186912;23;20437;-80
2021/09/02 10:57:18;;;;;;;6.22;3.88;;;29.20;68.30;;;;;;6166388;23;20062;-81
2021/09/02 11:00:31;;;;;;;9.70;4.30;;;29.10;68.70;;;;;;6192636;23;20005;-84
2021/09/02 11:03:21;;;;;;;9.20;3.92;;;29.00;68.50;;;;;;6142639;23;20075;-85
2021/09/02 11:06:10;;;;;;;7.68;3.80;;;28.90;68.20;;;;;;6164583;23;20035;-85
2021/09/02 11:08:37;;;;;;;6.13;4.03;;;28.90;68.10;;;;;;6158993;23;20044;-85
2021/09/02 11:11:16;;;;;;;8.32;4.18;;;28.90;68.40;;;;;;6157115;23;20009;-85
2021/09/02 11:13:44;;;;;;;5.32;4.20;;;29.00;69.10;;;;;;6166082;23;20006;-89
2021/09/02 11:16:20;;;;;;;12.75;4.00;;;29.00;69.40;;;;;;6165564;23;20001;-85
2021/09/02 11:21:54;;;;;;;4.72;3.63;;;28.80;69.30;;;;;;6146758;23;20032;-85
2021/09/02 11:24:20;;;;;;;7.80;3.80;;;28.90;68.60;;;;;;6164800;23;20425;-85
2021/09/02 11:26:50;;;;;;;5.75;3.42;;;28.80;68.20;;;;;;6165233;23;20001;-85
2021/09/02 11:29:24;;;;;;;8.77;3.80;;;28.70;69.00;;;;;;6166125;23;20041;-82
2021/09/02 11:32:17;;;;;;;4.72;3.25;;;28.70;67.80;;;;;;6165485;23;20012;-85
2021/09/02 11:34:43;;;;;;;9.10;3.63;;;28.70;66.60;;;;;;6166645;23;20006;-84
2021/09/02 11:37:10;;;;;;;10.38;4.13;;;28.70;66.80;;;;;;6163310;23;19989;-85
2021/09/02 11:39:42;;;;;;;5.70;3.40;;;28.70;65.70;;;;;;6164262;23;20010;-85
2021/09/02 11:42:11;;;;;;;6.18;3.55;;;28.70;65.30;;;;;;6165016;23;20016;-84
2021/09/02 11:44:39;;;;;;;4.72;3.35;;;28.80;65.40;;;;;;6140031;23;20009;-85
2021/09/02 11:47:17;;;;;;;5.47;3.55;;;28.90;65.60;;;;;;6165918;23;20007;-83
2021/09/02 11:49:43;;;;;;;11.38;3.97;;;28.90;64.60;;;;;;6164461;23;20467;-84
2021/09/02 11:52:12;;;;;;;5.70;3.35;;;29.00;65.10;;;;;;6158976;23;20013;-83
2021/09/02 11:54:38;;;;;;;12.75;4.03;;;28.90;65.80;;;;;;6169938;23;20040;-85
2021/09/02 11:57:04;;;;;;;7.40;3.28;;;28.90;66.20;;;;;;6167151;23;20357;-84
2021/09/02 11:59:29;;;;;;;4.47;3.15;;;28.90;66.20;;;;;;6166186;23;20008;-84
2021/09/02 12:01:58;;;;;;;8.80;3.58;;;28.80;64.90;;;;;;6166768;23;20025;-83
2021/09/02 12:04:28;;;;;;;8.15;4.00;;;28.80;65.50;;;;;;6166135;23;20435;-84
2021/09/02 12:06:58;;;;;;;8.97;3.60;;;28.70;66.20;;;;;;6165665;23;20017;-84
2021/09/02 12:09:27;;;;;;;12.82;4.03;;;28.70;66.30;;;;;;6189976;23;20060;-86
2021/09/02 12:11:57;;;;;;;4.25;3.72;;;28.70;66.20;;;;;;6168176;23;20001;-85
2021/09/02 12:14:32;;;;;;;4.93;3.67;;;28.70;66.40;;;;;;6172985;23;20012;-84
2021/09/02 12:17:12;;;;;;;5.55;3.92;;;28.70;66.90;;;;;;6197984;23;19997;-84
2021/09/02 12:19:54;;;;;;;5.97;3.80;;;28.60;67.00;;;;;;6197400;23;20001;-85
2021/09/02 12:22:25;;;;;;;7.07;3.55;;;28.60;66.20;;;;;;6168764;23;20063;-86
2021/09/02 12:24:51;;;;;;;6.75;4.07;;;28.60;66.50;;;;;;6170798;23;20005;-87
2021/09/02 12:27:17;;;;;;;5.88;3.72;;;28.60;67.40;;;;;;6171173;23;20012;-85
2021/09/02 12:30:08;;;;;;;12.63;3.88;;;28.60;67.60;;;;;;6170075;23;19997;-84
2021/09/02 12:32:37;;;;;;;12.20;3.85;;;28.60;68.90;;;;;;6167770;23;20095;-87
2021/09/02 12:35:34;;;;;;;10.48;3.85;;;28.50;68.50;;;;;;6145931;23;20440;-87
2021/09/02 12:38:00;;;;;;;5.82;3.78;;;28.40;68.40;;;;;;6164166;23;20032;-84
2021/09/02 12:40:39;;;;;;;6.60;4.07;;;28.40;68.00;;;;;;6200814;23;20008;-87
2021/09/02 12:43:19;;;;;;;5.90;3.97;;;28.30;69.20;;;;;;6196790;23;20009;-85
2021/09/02 12:45:58;;;;;;;11.35;4.30;;;28.20;68.90;;;;;;6168610;23;20156;-84
2021/09/02 12:48:25;;;;;;;5.93;4.07;;;28.10;69.10;;;;;;6170881;23;20027;-87
2021/09/02 12:50:52;;;;;;;13.88;3.83;;;28.10;69.30;;;;;;6148678;23;20009;-87
2021/09/02 12:53:22;;;;;;;17.52;3.80;;;28.10;69.60;;;;;;6145431;23;20020;-84
2021/09/02 12:55:49;;;;;;;5.30;4.10;;;28.10;70.10;;;;;;6190151;23;20005;-84